createdAt,value
2023-02-14T00:03:26.361Z,48.13
2023-02-14T00:06:31.782Z,42.03
2023-02-14T00:16:53.649Z,48.00
2023-02-14T00:33:06.768Z,42.92
2023-02-14T00:44:18.315Z,39.63
2023-02-14T00:50:56.444Z,40.92
2023-02-14T01:00:57.612Z,40.55
2023-02-14T01:07:21.758Z,38.25
2023-02-14T01:29:03.475Z,42.22
2023-02-14T01:32:59.106Z,29.83
2023-02-14T01:45:37.111Z,43.70
2023-02-14T01:48:28.554Z,40.55
2023-02-14T02:02:56.253Z,38.83
2023-02-14T02:17:20.177Z,40.20
2023-02-14T02:44:57.012Z,45.95
2023-02-14T02:47:35.809Z,43.13
2023-02-14T03:03:20.351Z,37.75
2023-02-14T04:05:55.529Z,37.38
2023-02-14T04:15:57.478Z,35.80
2023-02-14T04:37:54.507Z,35.80
2023-02-14T04:44:51.690Z,34.67
2023-02-14T04:54:46.412Z,33.35
2023-02-14T05:00:45.963Z,32.17
2023-02-14T05:03:56.520Z,38.08
2023-02-14T05:07:07.282Z,31.67
2023-02-14T05:19:10.857Z,32.88
2023-02-14T05:24:44.018Z,36.72
2023-02-14T05:27:29.659Z,31.65
2023-02-14T05:30:04.623Z,48.67
2023-02-14T05:36:04.752Z,46.17
2023-02-14T05:38:50.174Z,35.80
2023-02-14T05:42:06.813Z,32.92
2023-02-14T05:45:13.777Z,34.47
2023-02-14T05:48:21.369Z,38.75
2023-02-14T05:50:58.073Z,36.72
2023-02-14T05:56:42.525Z,49.20
2023-02-14T05:59:40.550Z,45.78
2023-02-14T06:02:14.358Z,40.47
2023-02-14T06:13:38.572Z,39.53
2023-02-14T06:19:11.566Z,39.47
2023-02-14T06:34:11.007Z,43.70
2023-02-14T06:40:15.252Z,41.42
2023-02-14T06:47:17.143Z,38.17
2023-02-14T06:53:38.137Z,48.85
2023-02-14T06:56:39.243Z,41.67
2023-02-14T06:59:13.757Z,43.50
2023-02-14T07:02:24.349Z,39.83
2023-02-14T07:05:24.115Z,41.92
2023-02-14T07:07:58.860Z,44.45
2023-02-14T07:10:31.922Z,55.17
2023-02-14T07:13:04.737Z,44.50
2023-02-14T07:15:41.136Z,50.10
2023-02-14T07:18:16.292Z,50.30
2023-02-14T07:20:49.174Z,51.03
2023-02-14T07:26:39.434Z,56.47
2023-02-14T07:29:09.251Z,45.72
2023-02-14T07:32:00.847Z,57.28
2023-02-14T07:34:35.867Z,49.80
2023-02-14T07:37:13.628Z,44.60
2023-02-14T07:39:57.732Z,43.88
2023-02-14T07:42:46.927Z,42.05
2023-02-14T07:45:37.429Z,49.47
2023-02-14T07:49:15.866Z,49.28
2023-02-14T07:51:51.331Z,52.78
2023-02-14T07:54:26.901Z,57.25
2023-02-14T07:56:59.536Z,97.45
2023-02-14T07:59:45.594Z,68.93
2023-02-14T08:02:28.278Z,67.00
2023-02-14T08:07:57.679Z,53.10
2023-02-14T08:10:53.329Z,47.50
2023-02-14T08:13:25.603Z,46.17
2023-02-14T08:16:08.163Z,51.83
2023-02-14T08:18:48.357Z,40.80
2023-02-14T08:22:47.504Z,45.28
2023-02-14T08:30:54.644Z,51.38
2023-02-14T08:33:55.279Z,36.55
2023-02-14T08:39:25.726Z,54.70
2023-02-14T08:41:58.480Z,43.05
2023-02-14T08:44:31.575Z,44.17
2023-02-14T08:47:08.030Z,40.42
2023-02-14T08:49:38.969Z,40.13
2023-02-14T08:58:22.074Z,35.88
2023-02-14T09:00:53.217Z,32.28
2023-02-14T09:03:22.157Z,34.90
2023-02-14T09:08:44.884Z,37.17
2023-02-14T09:11:20.224Z,40.05
2023-02-14T09:13:53.896Z,33.83
2023-02-14T09:16:38.157Z,39.70
2023-02-14T09:19:06.916Z,37.38
2023-02-14T09:21:40.536Z,41.78
2023-02-14T09:24:31.795Z,41.85
2023-02-14T09:33:05.086Z,36.05
2023-02-14T09:36:07.631Z,43.42
2023-02-14T09:38:45.630Z,40.03
2023-02-14T09:41:54.051Z,40.65
2023-02-14T09:44:39.435Z,47.30
2023-02-14T09:51:21.301Z,44.72
2023-02-14T09:54:21.009Z,45.88
2023-02-14T09:57:31.586Z,47.08
2023-02-14T10:00:27.316Z,46.67
2023-02-14T10:03:21.361Z,43.28
2023-02-14T10:06:20.993Z,46.28
2023-02-14T10:09:30.379Z,47.22
2023-02-14T10:12:23.691Z,47.35
2023-02-14T10:15:13.059Z,46.70
2023-02-14T10:18:05.474Z,46.88
2023-02-14T10:25:10.969Z,48.53
2023-02-14T10:27:46.571Z,46.13
2023-02-14T10:30:54.422Z,46.95
2023-02-14T10:33:32.223Z,47.00
2023-02-14T10:39:43.171Z,39.83
2023-02-14T10:43:12.331Z,44.90
2023-02-14T10:45:53.237Z,43.03
2023-02-14T10:52:20.127Z,40.78
2023-02-14T10:55:32.717Z,48.33
2023-02-14T10:58:27.156Z,44.10
2023-02-14T11:01:24.702Z,37.97
2023-02-14T11:04:24.093Z,38.80
2023-02-14T11:10:10.014Z,32.25
2023-02-14T11:12:48.208Z,30.67
2023-02-14T11:16:02.190Z,30.42
2023-02-14T11:18:57.114Z,32.38
2023-02-14T11:21:42.287Z,34.15
2023-02-14T11:24:44.084Z,42.60
2023-02-14T11:27:22.187Z,37.78
2023-02-14T11:29:53.594Z,34.67
2023-02-14T11:32:30.172Z,34.15
2023-02-14T11:35:08.332Z,27.05
2023-02-14T11:37:51.506Z,33.97
2023-02-14T11:40:40.560Z,30.90
2023-02-14T11:43:14.654Z,34.13
2023-02-14T11:45:54.616Z,30.98
2023-02-14T11:49:04.680Z,33.33
2023-02-14T11:52:07.994Z,29.42
2023-02-14T12:03:23.721Z,26.77
2023-02-14T12:05:54.523Z,28.05
2023-02-14T12:08:44.368Z,30.15
2023-02-14T12:11:22.781Z,24.38
2023-02-14T12:13:58.010Z,28.42
2023-02-14T12:16:56.225Z,28.30
2023-02-14T12:19:55.097Z,28.95
2023-02-14T12:22:31.487Z,27.50
2023-02-14T12:28:44.994Z,24.40
2023-02-14T12:31:14.097Z,23.23
2023-02-14T12:33:41.520Z,31.80
2023-02-14T12:36:55.600Z,22.38
2023-02-14T12:39:49.712Z,25.35
2023-02-14T12:42:19.578Z,25.25
2023-02-14T12:44:57.053Z,19.73
2023-02-14T12:48:03.160Z,23.10
2023-02-14T12:51:03.795Z,25.00
2023-02-14T12:54:11.310Z,24.40
2023-02-14T13:01:13.241Z,24.38
2023-02-14T13:04:15.218Z,24.88
2023-02-14T13:07:27.050Z,23.98
2023-02-14T13:10:37.524Z,27.88
2023-02-14T13:13:43.295Z,22.40
2023-02-14T13:16:49.850Z,27.27
2023-02-14T13:19:56.338Z,23.63
2023-02-14T13:26:01.578Z,21.58
2023-02-14T13:28:36.798Z,23.45
2023-02-14T13:31:12.332Z,23.88
2023-02-14T13:37:18.042Z,20.80
2023-02-14T13:40:09.451Z,19.27
2023-02-14T13:42:51.900Z,24.23
2023-02-14T13:45:34.325Z,22.70
2023-02-14T13:48:31.798Z,25.58
2023-02-14T13:51:12.088Z,26.92
2023-02-14T13:53:43.635Z,28.00
2023-02-14T13:56:28.451Z,26.05
2023-02-14T13:59:06.844Z,28.63
2023-02-14T14:01:47.673Z,30.05
2023-02-14T14:04:50.403Z,34.60
2023-02-14T14:07:27.309Z,36.63
2023-02-14T14:10:19.713Z,32.65
2023-02-14T14:13:07.389Z,36.60
2023-02-14T14:18:46.020Z,30.63
2023-02-14T14:22:16.914Z,31.15
2023-02-14T14:25:11.018Z,25.88
2023-02-14T14:28:17.641Z,31.70
2023-02-14T14:30:49.591Z,26.45
2023-02-14T14:36:47.502Z,28.67
2023-02-14T14:39:50.763Z,28.90
2023-02-14T14:42:25.705Z,33.47
2023-02-14T14:45:23.197Z,34.97
2023-02-14T14:48:07.597Z,41.97
2023-02-14T14:50:36.711Z,41.33
2023-02-14T14:53:09.750Z,41.65
2023-02-14T14:55:46.201Z,49.75
2023-02-14T14:58:42.035Z,48.80
2023-02-14T15:01:30.471Z,54.78
2023-02-14T15:04:16.271Z,51.38
2023-02-14T15:06:51.481Z,61.25
2023-02-14T15:09:25.036Z,51.60
2023-02-14T15:12:12.017Z,58.42
2023-02-14T15:14:43.239Z,56.28
2023-02-14T15:17:31.897Z,53.30
2023-02-14T15:20:01.898Z,55.08
2023-02-14T15:22:44.577Z,55.83
2023-02-14T15:25:17.232Z,53.80
2023-02-14T15:27:44.590Z,58.88
2023-02-14T15:31:23.641Z,56.20
2023-02-14T15:33:53.582Z,63.50
2023-02-14T15:36:27.685Z,64.85
2023-02-14T15:38:59.902Z,61.13
2023-02-14T15:41:30.228Z,62.67
2023-02-14T15:43:57.655Z,59.10
2023-02-14T15:53:28.186Z,60.75
2023-02-14T15:56:05.771Z,70.38
2023-02-14T15:58:35.751Z,60.28
2023-02-14T16:01:07.152Z,64.97
2023-02-14T16:03:43.050Z,70.53
2023-02-14T16:06:30.678Z,67.50
2023-02-14T16:09:02.656Z,71.20
2023-02-14T16:11:31.651Z,66.10
2023-02-14T16:13:58.908Z,64.35
2023-02-14T16:19:52.142Z,73.05
2023-02-14T16:22:33.652Z,66.93
2023-02-14T16:25:01.815Z,68.38
2023-02-14T16:27:29.005Z,75.30
2023-02-14T16:29:56.366Z,84.00
2023-02-14T16:32:27.850Z,69.47
2023-02-14T16:34:55.312Z,68.78
2023-02-14T16:37:36.104Z,74.03
2023-02-14T16:40:08.817Z,71.63
2023-02-14T16:42:39.136Z,79.25
2023-02-14T16:45:06.982Z,76.65
2023-02-14T16:47:36.624Z,67.78
2023-02-14T16:50:03.807Z,72.32
2023-02-14T16:52:41.408Z,70.93
2023-02-14T16:55:17.985Z,73.40
2023-02-14T16:57:53.494Z,73.60
2023-02-14T17:00:21.877Z,71.45
2023-02-14T17:02:49.418Z,70.60
2023-02-14T17:05:16.629Z,70.85
2023-02-14T17:07:46.535Z,73.75
2023-02-14T17:10:19.567Z,62.17
2023-02-14T17:12:49.195Z,70.72
2023-02-14T17:15:45.182Z,61.80
2023-02-14T17:18:15.305Z,63.33
2023-02-14T17:20:42.611Z,65.85
2023-02-14T17:23:09.921Z,62.58
2023-02-14T17:25:38.879Z,63.95
2023-02-14T17:28:08.247Z,73.20
2023-02-14T17:30:35.550Z,71.53
2023-02-14T17:33:02.676Z,69.72
2023-02-14T17:35:30.118Z,70.82
2023-02-14T17:38:00.196Z,71.68
2023-02-14T17:40:28.929Z,68.80
2023-02-14T17:43:19.732Z,62.58
2023-02-14T17:45:46.713Z,62.70
2023-02-14T17:48:15.609Z,68.03
2023-02-14T17:50:46.376Z,64.20
2023-02-14T17:53:22.270Z,65.07
2023-02-14T17:55:49.677Z,64.95
2023-02-14T17:58:16.801Z,67.38
2023-02-14T18:00:43.824Z,65.40
2023-02-14T18:03:13.490Z,64.43
2023-02-14T18:05:40.590Z,64.35
2023-02-14T18:08:08.313Z,65.55
2023-02-14T18:10:37.321Z,62.22
2023-02-14T18:13:07.729Z,60.38
2023-02-14T18:15:35.204Z,70.97
2023-02-14T18:18:06.228Z,71.67
2023-02-14T18:20:33.301Z,64.70
2023-02-14T18:23:07.154Z,65.85
2023-02-14T18:25:34.664Z,69.45
2023-02-14T18:28:01.948Z,57.80
2023-02-14T18:30:29.893Z,64.55
2023-02-14T18:32:57.110Z,66.15
2023-02-14T18:35:29.748Z,73.10
2023-02-14T18:38:02.596Z,66.10
2023-02-14T18:40:29.901Z,65.72
2023-02-14T18:43:02.468Z,71.05
2023-02-14T18:49:16.154Z,80.63
2023-02-14T18:52:06.692Z,84.45
2023-02-14T19:54:53.916Z,83.55
2023-02-14T19:57:42.774Z,93.25
2023-02-14T20:07:43.741Z,90.57
2023-02-14T20:13:23.836Z,75.85
2023-02-14T20:16:02.801Z,83.07
2023-02-14T20:18:40.729Z,67.38
2023-02-14T20:21:17.070Z,63.33
2023-02-14T20:23:57.368Z,68.78
2023-02-14T20:26:28.022Z,78.70
2023-02-14T20:29:02.669Z,81.30
2023-02-14T20:31:42.010Z,83.60
2023-02-14T20:34:10.145Z,81.72
2023-02-14T20:36:41.272Z,74.90
2023-02-14T20:39:10.953Z,66.35
2023-02-14T20:41:52.114Z,61.60
2023-02-14T20:44:28.235Z,65.03
2023-02-14T20:47:00.444Z,82.20
2023-02-14T20:49:39.894Z,70.10
2023-02-14T20:52:18.931Z,60.42
2023-02-14T20:54:47.938Z,60.10
2023-02-14T20:57:19.388Z,80.40
2023-02-14T20:59:46.854Z,85.00
2023-02-14T21:02:16.757Z,86.18
2023-02-14T21:04:59.143Z,94.65
2023-02-14T21:07:31.449Z,93.97
2023-02-14T21:09:59.463Z,103.00
2023-02-14T21:15:38.267Z,91.60
2023-02-14T21:18:13.265Z,84.55
2023-02-14T21:20:55.736Z,88.63
2023-02-14T21:23:32.441Z,90.90
2023-02-14T21:26:06.355Z,80.35
2023-02-14T21:28:33.997Z,94.88
2023-02-14T21:31:13.716Z,95.05
2023-02-14T21:33:52.964Z,92.07
2023-02-14T21:36:22.451Z,83.68
2023-02-14T21:39:03.110Z,82.15
2023-02-14T21:41:33.653Z,84.53
2023-02-14T21:44:31.116Z,89.70
2023-02-14T21:48:06.699Z,99.43
2023-02-14T21:50:45.603Z,88.32
2023-02-14T21:53:15.603Z,94.95
2023-02-14T21:56:03.950Z,91.15
2023-02-14T22:01:51.436Z,95.07
2023-02-14T22:04:21.544Z,100.60
2023-02-14T22:07:07.348Z,99.70
2023-02-14T22:09:48.854Z,99.70
2023-02-14T22:12:36.475Z,102.63
2023-02-14T22:15:37.476Z,101.10
2023-02-14T22:18:16.355Z,105.03
2023-02-14T22:24:05.083Z,96.38
2023-02-14T22:27:13.819Z,95.18
2023-02-14T22:29:47.337Z,99.43
2023-02-14T22:32:24.480Z,100.40
2023-02-14T22:37:42.916Z,99.10
2023-02-14T22:40:36.910Z,79.68
2023-02-14T22:43:06.710Z,68.70
2023-02-14T22:45:51.575Z,60.38
2023-02-14T22:48:24.592Z,58.95
2023-02-14T22:51:39.520Z,59.53
2023-02-14T22:54:15.981Z,56.88
2023-02-14T22:56:57.176Z,59.72
2023-02-14T22:59:32.378Z,55.58
2023-02-14T23:02:02.536Z,55.45
2023-02-14T23:04:47.897Z,53.08
2023-02-14T23:07:28.588Z,60.75
2023-02-14T23:10:01.255Z,56.90
2023-02-14T23:12:47.292Z,59.80
2023-02-14T23:15:39.671Z,65.00
2023-02-14T23:25:11.170Z,72.85
2023-02-14T23:27:48.126Z,75.63
2023-02-14T23:33:34.659Z,78.93
2023-02-14T23:36:11.190Z,76.40
2023-02-14T23:38:44.060Z,76.68
2023-02-14T23:41:49.456Z,72.68
2023-02-14T23:50:31.249Z,66.50
2023-02-14T23:53:13.516Z,82.47
